Calimesa, CA (92320)

4:57 PM PST on December 04, 2016 (GMT -0800)
Whisper Ranch Area | | Change Station

Elev 2838 ft 34.01 °N, 117.02 °W | Updated 3 seconds ago

Clear
Clear
62.8 °F
Feels Like 62.8 °F
N
0.0
Wind Variable Wind from WNW
Gusts 0.0 mph

Today
High -- | Low -- °F
--% Chance of Precip.
Yesterday
High -- | Low -- °F
Precip. -- in
Pressure 29.99 in
Visibility 10.0 miles
Clouds Clear
Dew Point 20 °F
Humidity 19%
Rainfall 0.00 in
Snow Depth Not available.
6:38 AM 4:38 PM
Waxing Crescent, 27% visible
METAR KSBD 050038Z AUTO 25003KT 10SM CLR 21/M05 A2999 RMK AO2 T02101053
Pressure 29.99 in
Visibility 10.0 miles
Clouds Clear
Dew Point 20 °F
Humidity 19%
Rainfall 0.00 in
Snow Depth Not available.
6:38 AM 4:38 PM
Waxing Crescent, 27% visible
METAR KSBD 050038Z AUTO 25003KT 10SM CLR 21/M05 A2999 RMK AO2 T02101053

10-Day Weather Forecast

Almanac

Astronomy

Dec. 04, 2016 Rise Set
Actual Time
Civil Twilight
Nautical Twilight
Astronomical Twilight
Moon
Length of Visible Light
Length of Day
Tomorrow will be .
, % of the Moon is Illuminated

Today's Extremes

State Highs State Lows

Community

WunderPhotos

Upload Photos

1,955,729 photos uploaded!

WunderBlog® & News

Nearby

Air Quality

  Air Quality AQ Index Pollutant
Not available.

Snow Depth

Station Depth Elevation

Earthquake Activity

City Distance Mag. Time & Date
Minimum magnitude displayed is 2.5.

Coastal Water Temperatures

Place Temperature

Stations

Nearby Weather Stations

Station Location Temp. Windchill Dew Point Humidity Wind Precip. Elev Updated Type
                   

Watches & Warnings

There are currently no watches in effect.